sensor_id;sensor_type;location;lat;lon;timestamp;P1;durP1;ratioP1;P2;durP2;ratioP2
17820;SDS011;9035;42.554;23.188;2022-10-16T00:01:49;4.77;;;3.73;;
17820;SDS011;9035;42.554;23.188;2022-10-16T00:04:16;4.37;;;3.30;;
17820;SDS011;9035;42.554;23.188;2022-10-16T00:06:42;4.30;;;3.43;;
17820;SDS011;9035;42.554;23.188;2022-10-16T00:09:09;4.80;;;3.80;;
17820;SDS011;9035;42.554;23.188;2022-10-16T00:11:37;5.13;;;3.17;;
17820;SDS011;9035;42.554;23.188;2022-10-16T00:14:07;5.87;;;4.27;;
17820;SDS011;9035;42.554;23.188;2022-10-16T00:16:35;4.50;;;3.33;;
17820;SDS011;9035;42.554;23.188;2022-10-16T00:19:03;6.90;;;3.20;;
17820;SDS011;9035;42.554;23.188;2022-10-16T00:21:30;5.23;;;3.33;;
17820;SDS011;9035;42.554;23.188;2022-10-16T00:23:58;3.80;;;3.30;;
17820;SDS011;9035;42.554;23.188;2022-10-16T00:26:26;8.67;;;3.67;;
17820;SDS011;9035;42.554;23.188;2022-10-16T00:28:55;4.20;;;3.27;;
17820;SDS011;9035;42.554;23.188;2022-10-16T00:31:23;3.87;;;3.20;;
17820;SDS011;9035;42.554;23.188;2022-10-16T00:33:50;4.43;;;3.50;;
17820;SDS011;9035;42.554;23.188;2022-10-16T00:36:18;6.57;;;3.57;;
17820;SDS011;9035;42.554;23.188;2022-10-16T00:38:47;6.00;;;3.43;;
17820;SDS011;9035;42.554;23.188;2022-10-16T00:41:17;4.90;;;3.47;;
17820;SDS011;9035;42.554;23.188;2022-10-16T00:43:45;4.57;;;3.47;;
17820;SDS011;9035;42.554;23.188;2022-10-16T00:46:15;3.40;;;3.10;;
17820;SDS011;9035;42.554;23.188;2022-10-16T00:48:48;3.80;;;3.40;;
17820;SDS011;9035;42.554;23.188;2022-10-16T00:51:18;5.60;;;3.47;;
17820;SDS011;9035;42.554;23.188;2022-10-16T00:53:48;4.43;;;3.53;;
17820;SDS011;9035;42.554;23.188;2022-10-16T00:56:15;4.90;;;3.47;;
17820;SDS011;9035;42.554;23.188;2022-10-16T00:58:42;3.53;;;3.07;;
17820;SDS011;9035;42.554;23.188;2022-10-16T01:01:09;6.50;;;3.70;;
17820;SDS011;9035;42.554;23.188;2022-10-16T01:03:36;4.30;;;2.93;;
17820;SDS011;9035;42.554;23.188;2022-10-16T01:06:15;4.77;;;3.80;;
17820;SDS011;9035;42.554;23.188;2022-10-16T01:08:51;4.43;;;3.37;;
17820;SDS011;9035;42.554;23.188;2022-10-16T01:11:26;5.73;;;3.53;;
17820;SDS011;9035;42.554;23.188;2022-10-16T01:14:00;5.97;;;3.87;;
17820;SDS011;9035;42.554;23.188;2022-10-16T01:16:38;4.03;;;3.07;;
17820;SDS011;9035;42.554;23.188;2022-10-16T01:19:12;3.90;;;3.50;;
17820;SDS011;9035;42.554;23.188;2022-10-16T01:21:44;3.70;;;3.00;;
17820;SDS011;9035;42.554;23.188;2022-10-16T01:24:17;4.17;;;3.07;;
17820;SDS011;9035;42.554;23.188;2022-10-16T01:29:49;4.33;;;3.33;;
17820;SDS011;9035;42.554;23.188;2022-10-16T01:32:22;5.47;;;3.30;;
17820;SDS011;9035;42.554;23.188;2022-10-16T01:34:55;5.27;;;3.67;;
17820;SDS011;9035;42.554;23.188;2022-10-16T01:37:36;4.13;;;3.73;;
17820;SDS011;9035;42.554;23.188;2022-10-16T01:40:07;5.80;;;3.50;;
17820;SDS011;9035;42.554;23.188;2022-10-16T01:42:39;5.43;;;3.40;;
17820;SDS011;9035;42.554;23.188;2022-10-16T01:45:11;3.70;;;3.27;;
17820;SDS011;9035;42.554;23.188;2022-10-16T01:47:43;4.37;;;3.67;;
17820;SDS011;9035;42.554;23.188;2022-10-16T01:50:10;5.57;;;3.70;;
17820;SDS011;9035;42.554;23.188;2022-10-16T01:52:41;4.67;;;3.23;;
17820;SDS011;9035;42.554;23.188;2022-10-16T01:55:13;4.43;;;3.43;;
17820;SDS011;9035;42.554;23.188;2022-10-16T01:57:46;4.13;;;3.70;;
17820;SDS011;9035;42.554;23.188;2022-10-16T02:00:16;5.33;;;3.77;;
17820;SDS011;9035;42.554;23.188;2022-10-16T02:02:46;4.40;;;3.30;;
17820;SDS011;9035;42.554;23.188;2022-10-16T02:05:17;4.70;;;3.80;;
17820;SDS011;9035;42.554;23.188;2022-10-16T02:07:49;5.33;;;3.87;;
17820;SDS011;9035;42.554;23.188;2022-10-16T02:10:16;5.23;;;3.83;;
17820;SDS011;9035;42.554;23.188;2022-10-16T02:12:46;4.37;;;3.83;;
17820;SDS011;9035;42.554;23.188;2022-10-16T02:15:16;5.73;;;3.43;;
17820;SDS011;9035;42.554;23.188;2022-10-16T02:17:43;3.90;;;3.13;;
17820;SDS011;9035;42.554;23.188;2022-10-16T02:20:10;5.33;;;3.63;;
17820;SDS011;9035;42.554;23.188;2022-10-16T02:22:38;5.20;;;3.10;;
17820;SDS011;9035;42.554;23.188;2022-10-16T02:25:09;6.33;;;3.20;;
17820;SDS011;9035;42.554;23.188;2022-10-16T02:27:52;4.57;;;3.43;;
17820;SDS011;9035;42.554;23.188;2022-10-16T02:30:25;6.03;;;3.70;;
17820;SDS011;9035;42.554;23.188;2022-10-16T02:32:55;5.87;;;3.33;;
17820;SDS011;9035;42.554;23.188;2022-10-16T02:35:25;4.63;;;3.83;;
17820;SDS011;9035;42.554;23.188;2022-10-16T02:37:53;3.77;;;3.43;;
17820;SDS011;9035;42.554;23.188;2022-10-16T02:40:22;5.60;;;3.07;;
17820;SDS011;9035;42.554;23.188;2022-10-16T02:42:50;6.23;;;4.33;;
17820;SDS011;9035;42.554;23.188;2022-10-16T02:45:19;3.97;;;3.50;;
17820;SDS011;9035;42.554;23.188;2022-10-16T02:47:47;3.90;;;3.00;;
17820;SDS011;9035;42.554;23.188;2022-10-16T02:50:14;3.53;;;3.23;;
17820;SDS011;9035;42.554;23.188;2022-10-16T02:52:41;5.70;;;3.80;;
17820;SDS011;9035;42.554;23.188;2022-10-16T02:55:08;4.80;;;3.13;;
17820;SDS011;9035;42.554;23.188;2022-10-16T02:57:35;4.37;;;3.50;;
17820;SDS011;9035;42.554;23.188;2022-10-16T03:00:05;3.70;;;3.30;;
17820;SDS011;9035;42.554;23.188;2022-10-16T03:02:34;6.37;;;3.30;;
17820;SDS011;9035;42.554;23.188;2022-10-16T03:05:01;3.80;;;3.30;;
17820;SDS011;9035;42.554;23.188;2022-10-16T03:07:28;5.27;;;3.30;;
17820;SDS011;9035;42.554;23.188;2022-10-16T03:09:54;3.83;;;3.43;;
17820;SDS011;9035;42.554;23.188;2022-10-16T03:12:21;5.63;;;3.20;;
17820;SDS011;9035;42.554;23.188;2022-10-16T03:14:48;5.23;;;3.37;;
17820;SDS011;9035;42.554;23.188;2022-10-16T03:17:15;4.27;;;3.20;;
17820;SDS011;9035;42.554;23.188;2022-10-16T03:19:44;5.87;;;3.83;;
17820;SDS011;9035;42.554;23.188;2022-10-16T03:22:11;6.40;;;3.43;;
17820;SDS011;9035;42.554;23.188;2022-10-16T03:24:37;3.47;;;3.07;;
17820;SDS011;9035;42.554;23.188;2022-10-16T03:27:04;4.70;;;3.07;;
17820;SDS011;9035;42.554;23.188;2022-10-16T03:29:31;4.60;;;2.90;;
17820;SDS011;9035;42.554;23.188;2022-10-16T03:31:58;5.27;;;3.40;;
17820;SDS011;9035;42.554;23.188;2022-10-16T03:34:25;5.57;;;3.50;;
17820;SDS011;9035;42.554;23.188;2022-10-16T03:36:54;4.97;;;3.17;;
17820;SDS011;9035;42.554;23.188;2022-10-16T03:39:21;6.70;;;3.33;;
17820;SDS011;9035;42.554;23.188;2022-10-16T03:41:48;4.30;;;3.33;;
17820;SDS011;9035;42.554;23.188;2022-10-16T03:44:14;4.37;;;2.93;;
17820;SDS011;9035;42.554;23.188;2022-10-16T03:46:41;4.07;;;3.00;;
17820;SDS011;9035;42.554;23.188;2022-10-16T03:49:08;3.47;;;3.17;;
17820;SDS011;9035;42.554;23.188;2022-10-16T03:51:34;4.33;;;3.30;;
17820;SDS011;9035;42.554;23.188;2022-10-16T03:54:03;5.23;;;3.47;;
17820;SDS011;9035;42.554;23.188;2022-10-16T03:56:29;4.43;;;3.50;;
17820;SDS011;9035;42.554;23.188;2022-10-16T03:58:56;6.20;;;3.10;;
17820;SDS011;9035;42.554;23.188;2022-10-16T04:01:23;4.27;;;3.03;;
17820;SDS011;9035;42.554;23.188;2022-10-16T04:03:49;3.33;;;3.03;;
17820;SDS011;9035;42.554;23.188;2022-10-16T04:06:16;4.10;;;3.03;;
17820;SDS011;9035;42.554;23.188;2022-10-16T04:08:43;3.83;;;3.10;;
17820;SDS011;9035;42.554;23.188;2022-10-16T04:11:11;3.73;;;3.27;;
17820;SDS011;9035;42.554;23.188;2022-10-16T04:13:38;4.17;;;3.43;;
17820;SDS011;9035;42.554;23.188;2022-10-16T04:16:06;4.57;;;3.20;;
17820;SDS011;9035;42.554;23.188;2022-10-16T04:18:33;3.10;;;2.80;;
17820;SDS011;9035;42.554;23.188;2022-10-16T04:21:02;3.80;;;3.10;;
17820;SDS011;9035;42.554;23.188;2022-10-16T04:23:30;5.53;;;3.30;;
17820;SDS011;9035;42.554;23.188;2022-10-16T04:25:57;3.77;;;3.17;;
17820;SDS011;9035;42.554;23.188;2022-10-16T04:28:25;6.17;;;3.03;;
17820;SDS011;9035;42.554;23.188;2022-10-16T04:30:52;4.93;;;3.40;;
17820;SDS011;9035;42.554;23.188;2022-10-16T04:33:19;3.47;;;3.17;;
17820;SDS011;9035;42.554;23.188;2022-10-16T04:35:46;4.53;;;3.50;;
17820;SDS011;9035;42.554;23.188;2022-10-16T04:38:13;5.50;;;3.50;;
17820;SDS011;9035;42.554;23.188;2022-10-16T04:40:41;5.27;;;3.20;;
17820;SDS011;9035;42.554;23.188;2022-10-16T04:43:08;5.07;;;3.57;;
17820;SDS011;9035;42.554;23.188;2022-10-16T04:45:37;4.17;;;3.47;;
17820;SDS011;9035;42.554;23.188;2022-10-16T04:48:03;3.97;;;3.53;;
17820;SDS011;9035;42.554;23.188;2022-10-16T04:50:30;3.30;;;3.00;;
17820;SDS011;9035;42.554;23.188;2022-10-16T04:52:57;4.07;;;3.47;;
17820;SDS011;9035;42.554;23.188;2022-10-16T04:55:24;4.13;;;3.47;;
17820;SDS011;9035;42.554;23.188;2022-10-16T04:57:50;6.07;;;3.67;;
17820;SDS011;9035;42.554;23.188;2022-10-16T05:00:17;6.00;;;3.37;;
17820;SDS011;9035;42.554;23.188;2022-10-16T05:02:46;5.93;;;3.47;;
17820;SDS011;9035;42.554;23.188;2022-10-16T05:05:12;6.17;;;3.20;;
17820;SDS011;9035;42.554;23.188;2022-10-16T05:07:39;4.73;;;3.10;;
17820;SDS011;9035;42.554;23.188;2022-10-16T05:10:06;6.40;;;3.03;;
17820;SDS011;9035;42.554;23.188;2022-10-16T05:12:33;5.37;;;3.20;;
17820;SDS011;9035;42.554;23.188;2022-10-16T05:15:00;3.97;;;3.10;;
17820;SDS011;9035;42.554;23.188;2022-10-16T05:17:27;6.70;;;3.50;;
17820;SDS011;9035;42.554;23.188;2022-10-16T05:19:55;3.97;;;3.30;;
17820;SDS011;9035;42.554;23.188;2022-10-16T05:22:21;5.30;;;3.43;;
17820;SDS011;9035;42.554;23.188;2022-10-16T05:24:48;3.67;;;3.13;;
17820;SDS011;9035;42.554;23.188;2022-10-16T05:27:15;4.03;;;3.47;;
17820;SDS011;9035;42.554;23.188;2022-10-16T05:29:44;4.13;;;3.10;;
17820;SDS011;9035;42.554;23.188;2022-10-16T05:32:12;4.50;;;2.80;;
17820;SDS011;9035;42.554;23.188;2022-10-16T05:34:39;3.23;;;2.90;;
17820;SDS011;9035;42.554;23.188;2022-10-16T05:37:07;4.70;;;2.80;;
17820;SDS011;9035;42.554;23.188;2022-10-16T05:39:34;3.20;;;2.67;;
17820;SDS011;9035;42.554;23.188;2022-10-16T05:42:02;3.50;;;3.20;;
17820;SDS011;9035;42.554;23.188;2022-10-16T05:44:28;3.53;;;3.10;;
17820;SDS011;9035;42.554;23.188;2022-10-16T05:46:56;3.83;;;3.03;;
17820;SDS011;9035;42.554;23.188;2022-10-16T05:49:22;3.93;;;2.50;;
17820;SDS011;9035;42.554;23.188;2022-10-16T05:51:49;5.43;;;3.23;;
17820;SDS011;9035;42.554;23.188;2022-10-16T05:54:17;5.27;;;3.60;;
17820;SDS011;9035;42.554;23.188;2022-10-16T05:56:44;4.00;;;3.07;;
17820;SDS011;9035;42.554;23.188;2022-10-16T05:59:11;3.67;;;2.90;;
17820;SDS011;9035;42.554;23.188;2022-10-16T06:01:38;4.07;;;2.97;;
17820;SDS011;9035;42.554;23.188;2022-10-16T06:04:05;4.47;;;2.93;;
17820;SDS011;9035;42.554;23.188;2022-10-16T06:06:31;3.73;;;3.10;;
17820;SDS011;9035;42.554;23.188;2022-10-16T06:08:58;3.83;;;2.97;;
17820;SDS011;9035;42.554;23.188;2022-10-16T06:11:27;5.20;;;3.30;;
17820;SDS011;9035;42.554;23.188;2022-10-16T06:13:56;5.17;;;4.30;;
17820;SDS011;9035;42.554;23.188;2022-10-16T06:16:23;6.37;;;4.30;;
17820;SDS011;9035;42.554;23.188;2022-10-16T06:18:52;5.00;;;4.10;;
17820;SDS011;9035;42.554;23.188;2022-10-16T06:21:21;6.67;;;4.57;;
17820;SDS011;9035;42.554;23.188;2022-10-16T06:23:49;5.47;;;3.50;;
17820;SDS011;9035;42.554;23.188;2022-10-16T06:26:17;6.87;;;4.03;;
17820;SDS011;9035;42.554;23.188;2022-10-16T06:28:47;4.33;;;3.70;;
17820;SDS011;9035;42.554;23.188;2022-10-16T06:31:15;7.67;;;3.83;;
17820;SDS011;9035;42.554;23.188;2022-10-16T06:33:43;8.87;;;4.43;;
17820;SDS011;9035;42.554;23.188;2022-10-16T06:36:11;5.43;;;4.60;;
17820;SDS011;9035;42.554;23.188;2022-10-16T06:38:39;5.50;;;4.90;;
17820;SDS011;9035;42.554;23.188;2022-10-16T06:41:07;5.57;;;4.57;;
17820;SDS011;9035;42.554;23.188;2022-10-16T06:43:36;7.40;;;5.20;;
17820;SDS011;9035;42.554;23.188;2022-10-16T06:46:05;4.87;;;4.03;;
17820;SDS011;9035;42.554;23.188;2022-10-16T06:48:33;4.83;;;3.90;;
17820;SDS011;9035;42.554;23.188;2022-10-16T06:51:01;6.00;;;3.20;;
17820;SDS011;9035;42.554;23.188;2022-10-16T06:53:30;3.97;;;3.10;;
17820;SDS011;9035;42.554;23.188;2022-10-16T06:56:06;4.30;;;3.40;;
17820;SDS011;9035;42.554;23.188;2022-10-16T06:58:33;4.67;;;3.60;;
17820;SDS011;9035;42.554;23.188;2022-10-16T07:01:00;5.60;;;4.10;;
17820;SDS011;9035;42.554;23.188;2022-10-16T07:03:29;7.17;;;4.73;;
17820;SDS011;9035;42.554;23.188;2022-10-16T07:05:56;6.67;;;4.70;;
17820;SDS011;9035;42.554;23.188;2022-10-16T07:08:23;6.87;;;5.13;;
17820;SDS011;9035;42.554;23.188;2022-10-16T07:10:57;7.17;;;5.33;;
17820;SDS011;9035;42.554;23.188;2022-10-16T07:13:25;8.70;;;5.80;;
17820;SDS011;9035;42.554;23.188;2022-10-16T07:15:52;6.37;;;5.20;;
17820;SDS011;9035;42.554;23.188;2022-10-16T07:18:19;6.83;;;4.70;;
17820;SDS011;9035;42.554;23.188;2022-10-16T07:20:48;6.17;;;4.63;;
17820;SDS011;9035;42.554;23.188;2022-10-16T07:23:14;7.17;;;5.30;;
17820;SDS011;9035;42.554;23.188;2022-10-16T07:25:41;13.47;;;6.60;;
17820;SDS011;9035;42.554;23.188;2022-10-16T07:28:08;8.77;;;5.80;;
17820;SDS011;9035;42.554;23.188;2022-10-16T07:30:35;6.47;;;5.20;;
17820;SDS011;9035;42.554;23.188;2022-10-16T07:33:03;14.93;;;9.90;;
17820;SDS011;9035;42.554;23.188;2022-10-16T07:35:30;17.43;;;11.73;;
17820;SDS011;9035;42.554;23.188;2022-10-16T07:37:58;19.47;;;12.40;;
17820;SDS011;9035;42.554;23.188;2022-10-16T07:40:24;11.00;;;9.07;;
17820;SDS011;9035;42.554;23.188;2022-10-16T07:42:52;12.03;;;8.30;;
17820;SDS011;9035;42.554;23.188;2022-10-16T07:45:19;12.20;;;8.13;;
17820;SDS011;9035;42.554;23.188;2022-10-16T07:47:45;9.00;;;7.23;;
17820;SDS011;9035;42.554;23.188;2022-10-16T07:50:12;8.73;;;5.60;;
17820;SDS011;9035;42.554;23.188;2022-10-16T07:52:39;8.50;;;6.17;;
17820;SDS011;9035;42.554;23.188;2022-10-16T07:55:08;6.37;;;5.27;;
17820;SDS011;9035;42.554;23.188;2022-10-16T07:57:35;7.57;;;4.93;;
17820;SDS011;9035;42.554;23.188;2022-10-16T08:00:02;6.50;;;4.93;;
17820;SDS011;9035;42.554;23.188;2022-10-16T08:02:29;7.90;;;5.30;;
17820;SDS011;9035;42.554;23.188;2022-10-16T08:04:57;6.17;;;5.07;;
17820;SDS011;9035;42.554;23.188;2022-10-16T08:07:23;6.80;;;4.73;;
17820;SDS011;9035;42.554;23.188;2022-10-16T08:09:50;9.10;;;5.43;;
17820;SDS011;9035;42.554;23.188;2022-10-16T08:12:19;6.63;;;5.23;;
17820;SDS011;9035;42.554;23.188;2022-10-16T08:14:45;7.33;;;5.40;;
17820;SDS011;9035;42.554;23.188;2022-10-16T08:17:13;7.27;;;5.10;;
17820;SDS011;9035;42.554;23.188;2022-10-16T08:19:43;7.53;;;5.00;;
17820;SDS011;9035;42.554;23.188;2022-10-16T08:22:11;8.53;;;5.43;;
17820;SDS011;9035;42.554;23.188;2022-10-16T08:24:37;6.23;;;4.93;;
17820;SDS011;9035;42.554;23.188;2022-10-16T08:27:04;7.53;;;5.23;;
17820;SDS011;9035;42.554;23.188;2022-10-16T08:29:33;7.70;;;5.70;;
17820;SDS011;9035;42.554;23.188;2022-10-16T08:32:00;6.37;;;4.80;;
17820;SDS011;9035;42.554;23.188;2022-10-16T08:34:27;7.33;;;5.53;;
17820;SDS011;9035;42.554;23.188;2022-10-16T08:36:54;6.20;;;5.20;;
17820;SDS011;9035;42.554;23.188;2022-10-16T08:39:20;7.67;;;6.07;;
17820;SDS011;9035;42.554;23.188;2022-10-16T08:44:44;10.40;;;7.10;;
17820;SDS011;9035;42.554;23.188;2022-10-16T08:47:26;9.03;;;7.17;;
17820;SDS011;9035;42.554;23.188;2022-10-16T08:50:02;9.77;;;7.33;;
17820;SDS011;9035;42.554;23.188;2022-10-16T08:52:35;13.93;;;8.33;;
17820;SDS011;9035;42.554;23.188;2022-10-16T08:55:08;8.80;;;6.53;;
17820;SDS011;9035;42.554;23.188;2022-10-16T08:57:45;12.67;;;7.20;;
17820;SDS011;9035;42.554;23.188;2022-10-16T09:00:14;10.60;;;7.53;;
17820;SDS011;9035;42.554;23.188;2022-10-16T09:02:44;14.17;;;7.90;;
17820;SDS011;9035;42.554;23.188;2022-10-16T09:05:24;11.57;;;7.20;;
17820;SDS011;9035;42.554;23.188;2022-10-16T09:08:08;11.43;;;8.17;;
17820;SDS011;9035;42.554;23.188;2022-10-16T09:10:46;10.00;;;7.17;;
17820;SDS011;9035;42.554;23.188;2022-10-16T09:13:20;9.93;;;6.90;;
17820;SDS011;9035;42.554;23.188;2022-10-16T09:15:55;8.77;;;6.83;;
17820;SDS011;9035;42.554;23.188;2022-10-16T09:18:32;9.67;;;7.53;;
17820;SDS011;9035;42.554;23.188;2022-10-16T09:21:08;12.47;;;7.63;;
17820;SDS011;9035;42.554;23.188;2022-10-16T09:23:40;12.00;;;7.63;;
17820;SDS011;9035;42.554;23.188;2022-10-16T09:26:09;22.10;;;8.63;;
17820;SDS011;9035;42.554;23.188;2022-10-16T09:28:38;17.00;;;7.97;;
17820;SDS011;9035;42.554;23.188;2022-10-16T09:31:07;10.77;;;6.80;;
17820;SDS011;9035;42.554;23.188;2022-10-16T09:33:39;11.47;;;7.17;;
17820;SDS011;9035;42.554;23.188;2022-10-16T09:36:08;9.07;;;6.30;;
17820;SDS011;9035;42.554;23.188;2022-10-16T09:38:36;9.13;;;6.67;;
17820;SDS011;9035;42.554;23.188;2022-10-16T09:41:10;12.10;;;6.83;;
17820;SDS011;9035;42.554;23.188;2022-10-16T09:43:45;11.63;;;6.73;;
17820;SDS011;9035;42.554;23.188;2022-10-16T09:46:22;8.83;;;6.70;;
17820;SDS011;9035;42.554;23.188;2022-10-16T09:48:53;9.70;;;6.47;;
17820;SDS011;9035;42.554;23.188;2022-10-16T09:51:21;10.20;;;6.70;;
17820;SDS011;9035;42.554;23.188;2022-10-16T09:53:54;6.63;;;5.63;;
17820;SDS011;9035;42.554;23.188;2022-10-16T09:56:23;8.80;;;5.83;;
17820;SDS011;9035;42.554;23.188;2022-10-16T09:58:51;9.87;;;6.43;;
17820;SDS011;9035;42.554;23.188;2022-10-16T10:01:19;6.90;;;5.63;;
17820;SDS011;9035;42.554;23.188;2022-10-16T10:03:48;8.70;;;5.63;;
17820;SDS011;9035;42.554;23.188;2022-10-16T10:06:19;6.70;;;5.47;;
17820;SDS011;9035;42.554;23.188;2022-10-16T10:08:53;11.33;;;6.17;;
17820;SDS011;9035;42.554;23.188;2022-10-16T10:11:41;7.00;;;5.57;;
17820;SDS011;9035;42.554;23.188;2022-10-16T10:14:14;8.77;;;5.60;;
17820;SDS011;9035;42.554;23.188;2022-10-16T10:16:44;11.20;;;6.67;;
17820;SDS011;9035;42.554;23.188;2022-10-16T10:19:15;9.13;;;6.33;;
17820;SDS011;9035;42.554;23.188;2022-10-16T10:21:43;8.00;;;6.50;;
17820;SDS011;9035;42.554;23.188;2022-10-16T10:24:10;6.47;;;5.83;;
17820;SDS011;9035;42.554;23.188;2022-10-16T10:26:38;8.93;;;6.20;;
17820;SDS011;9035;42.554;23.188;2022-10-16T10:29:12;8.53;;;5.60;;
17820;SDS011;9035;42.554;23.188;2022-10-16T10:31:53;8.30;;;6.00;;
17820;SDS011;9035;42.554;23.188;2022-10-16T10:34:42;10.47;;;5.97;;
17820;SDS011;9035;42.554;23.188;2022-10-16T10:37:24;10.77;;;5.80;;
17820;SDS011;9035;42.554;23.188;2022-10-16T10:40:04;9.50;;;5.20;;
17820;SDS011;9035;42.554;23.188;2022-10-16T10:42:38;7.47;;;5.00;;
17820;SDS011;9035;42.554;23.188;2022-10-16T10:45:18;8.37;;;5.90;;
17820;SDS011;9035;42.554;23.188;2022-10-16T10:48:05;8.80;;;5.67;;
17820;SDS011;9035;42.554;23.188;2022-10-16T10:50:43;8.87;;;5.33;;
17820;SDS011;9035;42.554;23.188;2022-10-16T10:53:21;7.40;;;5.70;;
17820;SDS011;9035;42.554;23.188;2022-10-16T10:56:00;9.10;;;5.00;;
17820;SDS011;9035;42.554;23.188;2022-10-16T10:59:07;8.03;;;5.00;;
17820;SDS011;9035;42.554;23.188;2022-10-16T11:01:48;7.00;;;4.60;;
17820;SDS011;9035;42.554;23.188;2022-10-16T11:04:31;6.30;;;4.50;;
17820;SDS011;9035;42.554;23.188;2022-10-16T11:07:21;6.30;;;4.50;;
17820;SDS011;9035;42.554;23.188;2022-10-16T11:09:53;6.53;;;4.40;;
17820;SDS011;9035;42.554;23.188;2022-10-16T11:12:24;6.37;;;5.10;;
17820;SDS011;9035;42.554;23.188;2022-10-16T11:14:55;8.80;;;5.30;;
17820;SDS011;9035;42.554;23.188;2022-10-16T11:17:28;6.80;;;4.47;;
17820;SDS011;9035;42.554;23.188;2022-10-16T11:20:00;5.73;;;4.70;;
17820;SDS011;9035;42.554;23.188;2022-10-16T11:22:40;5.20;;;4.30;;
17820;SDS011;9035;42.554;23.188;2022-10-16T11:25:13;6.67;;;4.03;;
17820;SDS011;9035;42.554;23.188;2022-10-16T11:27:44;4.73;;;3.73;;
17820;SDS011;9035;42.554;23.188;2022-10-16T11:30:18;5.77;;;4.43;;
17820;SDS011;9035;42.554;23.188;2022-10-16T11:32:50;6.73;;;4.20;;
17820;SDS011;9035;42.554;23.188;2022-10-16T11:35:24;7.03;;;4.00;;
17820;SDS011;9035;42.554;23.188;2022-10-16T11:37:55;4.90;;;3.90;;
17820;SDS011;9035;42.554;23.188;2022-10-16T11:40:25;7.10;;;4.53;;
17820;SDS011;9035;42.554;23.188;2022-10-16T11:42:57;5.17;;;3.53;;
17820;SDS011;9035;42.554;23.188;2022-10-16T11:45:29;5.47;;;4.13;;
17820;SDS011;9035;42.554;23.188;2022-10-16T11:48:02;4.68;;;3.65;;
17820;SDS011;9035;42.554;23.188;2022-10-16T11:50:39;8.73;;;4.45;;
17820;SDS011;9035;42.554;23.188;2022-10-16T11:53:18;6.90;;;4.07;;
17820;SDS011;9035;42.554;23.188;2022-10-16T11:55:55;5.07;;;4.20;;
17820;SDS011;9035;42.554;23.188;2022-10-16T11:58:23;4.93;;;3.80;;
17820;SDS011;9035;42.554;23.188;2022-10-16T12:00:56;5.85;;;3.92;;
17820;SDS011;9035;42.554;23.188;2022-10-16T12:03:31;5.30;;;4.03;;
17820;SDS011;9035;42.554;23.188;2022-10-16T12:06:16;6.50;;;3.78;;
17820;SDS011;9035;42.554;23.188;2022-10-16T12:08:53;4.32;;;3.92;;
17820;SDS011;9035;42.554;23.188;2022-10-16T12:11:31;4.03;;;3.63;;
17820;SDS011;9035;42.554;23.188;2022-10-16T12:14:21;3.83;;;3.38;;
17820;SDS011;9035;42.554;23.188;2022-10-16T12:17:03;4.53;;;3.90;;
17820;SDS011;9035;42.554;23.188;2022-10-16T12:19:56;3.38;;;2.95;;
17820;SDS011;9035;42.554;23.188;2022-10-16T12:22:24;4.45;;;3.92;;
17820;SDS011;9035;42.554;23.188;2022-10-16T12:24:56;5.30;;;3.63;;
17820;SDS011;9035;42.554;23.188;2022-10-16T12:27:25;5.43;;;3.60;;
17820;SDS011;9035;42.554;23.188;2022-10-16T12:29:55;5.38;;;3.55;;
17820;SDS011;9035;42.554;23.188;2022-10-16T12:32:27;3.83;;;3.40;;
17820;SDS011;9035;42.554;23.188;2022-10-16T12:34:58;6.05;;;3.40;;
17820;SDS011;9035;42.554;23.188;2022-10-16T12:37:26;5.47;;;3.30;;
17820;SDS011;9035;42.554;23.188;2022-10-16T12:39:57;5.10;;;3.50;;
17820;SDS011;9035;42.554;23.188;2022-10-16T12:42:32;4.18;;;3.72;;
17820;SDS011;9035;42.554;23.188;2022-10-16T12:45:00;5.88;;;3.50;;
17820;SDS011;9035;42.554;23.188;2022-10-16T12:47:37;5.13;;;3.47;;
17820;SDS011;9035;42.554;23.188;2022-10-16T12:50:26;5.82;;;3.60;;
17820;SDS011;9035;42.554;23.188;2022-10-16T12:52:57;3.97;;;3.28;;
17820;SDS011;9035;42.554;23.188;2022-10-16T12:55:25;6.22;;;3.03;;
17820;SDS011;9035;42.554;23.188;2022-10-16T12:58:02;5.20;;;3.05;;
17820;SDS011;9035;42.554;23.188;2022-10-16T13:00:36;3.47;;;3.10;;
17820;SDS011;9035;42.554;23.188;2022-10-16T13:03:26;3.95;;;2.90;;
17820;SDS011;9035;42.554;23.188;2022-10-16T13:06:16;4.43;;;3.13;;
17820;SDS011;9035;42.554;23.188;2022-10-16T13:11:52;9.38;;;4.35;;
17820;SDS011;9035;42.554;23.188;2022-10-16T13:17:25;6.32;;;3.45;;
17820;SDS011;9035;42.554;23.188;2022-10-16T13:20:00;3.70;;;3.25;;
17820;SDS011;9035;42.554;23.188;2022-10-16T13:22:37;6.70;;;3.20;;
17820;SDS011;9035;42.554;23.188;2022-10-16T13:25:16;3.50;;;2.92;;
17820;SDS011;9035;42.554;23.188;2022-10-16T13:27:51;6.00;;;2.63;;
17820;SDS011;9035;42.554;23.188;2022-10-16T13:30:31;4.90;;;2.97;;
17820;SDS011;9035;42.554;23.188;2022-10-16T13:33:04;4.93;;;2.85;;
17820;SDS011;9035;42.554;23.188;2022-10-16T13:35:34;5.30;;;2.92;;
17820;SDS011;9035;42.554;23.188;2022-10-16T13:38:05;3.40;;;2.85;;
17820;SDS011;9035;42.554;23.188;2022-10-16T13:40:47;4.90;;;2.90;;
17820;SDS011;9035;42.554;23.188;2022-10-16T13:43:17;4.55;;;3.30;;
17820;SDS011;9035;42.554;23.188;2022-10-16T13:45:52;3.30;;;3.00;;
17820;SDS011;9035;42.554;23.188;2022-10-16T13:48:20;4.60;;;3.27;;
17820;SDS011;9035;42.554;23.188;2022-10-16T13:50:46;3.50;;;3.15;;
17820;SDS011;9035;42.554;23.188;2022-10-16T13:53:25;13.25;;;3.30;;
17820;SDS011;9035;42.554;23.188;2022-10-16T13:55:51;4.25;;;3.20;;
17820;SDS011;9035;42.554;23.188;2022-10-16T13:58:20;3.70;;;2.95;;
17820;SDS011;9035;42.554;23.188;2022-10-16T14:00:53;4.10;;;2.60;;
17820;SDS011;9035;42.554;23.188;2022-10-16T14:03:22;2.97;;;2.67;;
17820;SDS011;9035;42.554;23.188;2022-10-16T14:05:51;3.80;;;3.20;;
17820;SDS011;9035;42.554;23.188;2022-10-16T14:08:19;4.27;;;2.97;;
17820;SDS011;9035;42.554;23.188;2022-10-16T14:10:47;5.93;;;2.73;;
17820;SDS011;9035;42.554;23.188;2022-10-16T14:13:16;3.47;;;3.10;;
17820;SDS011;9035;42.554;23.188;2022-10-16T14:15:47;4.73;;;2.90;;
17820;SDS011;9035;42.554;23.188;2022-10-16T14:18:18;5.00;;;3.00;;
17820;SDS011;9035;42.554;23.188;2022-10-16T14:20:48;4.00;;;3.30;;
17820;SDS011;9035;42.554;23.188;2022-10-16T14:23:20;3.70;;;2.97;;
17820;SDS011;9035;42.554;23.188;2022-10-16T14:25:51;3.90;;;3.03;;
17820;SDS011;9035;42.554;23.188;2022-10-16T14:28:18;3.83;;;3.07;;
17820;SDS011;9035;42.554;23.188;2022-10-16T14:30:52;2.80;;;2.60;;
17820;SDS011;9035;42.554;23.188;2022-10-16T14:33:21;5.27;;;2.73;;
17820;SDS011;9035;42.554;23.188;2022-10-16T14:36:00;4.13;;;2.90;;
17820;SDS011;9035;42.554;23.188;2022-10-16T14:38:30;5.50;;;2.93;;
17820;SDS011;9035;42.554;23.188;2022-10-16T14:40:58;3.10;;;2.77;;
17820;SDS011;9035;42.554;23.188;2022-10-16T14:43:32;5.37;;;2.90;;
17820;SDS011;9035;42.554;23.188;2022-10-16T14:46:03;4.87;;;3.00;;
17820;SDS011;9035;42.554;23.188;2022-10-16T14:48:39;4.63;;;2.60;;
17820;SDS011;9035;42.554;23.188;2022-10-16T14:51:08;3.83;;;2.90;;
17820;SDS011;9035;42.554;23.188;2022-10-16T14:53:39;3.50;;;3.00;;
17820;SDS011;9035;42.554;23.188;2022-10-16T14:56:06;3.33;;;2.80;;
17820;SDS011;9035;42.554;23.188;2022-10-16T14:58:34;3.40;;;2.63;;
17820;SDS011;9035;42.554;23.188;2022-10-16T15:01:03;4.70;;;3.00;;
17820;SDS011;9035;42.554;23.188;2022-10-16T15:03:31;4.80;;;2.90;;
17820;SDS011;9035;42.554;23.188;2022-10-16T15:05:58;4.33;;;2.77;;
17820;SDS011;9035;42.554;23.188;2022-10-16T15:08:25;3.70;;;2.83;;
17820;SDS011;9035;42.554;23.188;2022-10-16T15:10:52;3.27;;;2.87;;
17820;SDS011;9035;42.554;23.188;2022-10-16T15:13:18;4.17;;;2.93;;
17820;SDS011;9035;42.554;23.188;2022-10-16T15:15:45;3.30;;;2.70;;
17820;SDS011;9035;42.554;23.188;2022-10-16T15:18:15;4.63;;;3.00;;